Time;durP1;ratioP1;P1;durP2;ratioP2;P2;SDS_P1;SDS_P2;PMS_P1;PMS_P2;Temp;Humidity;BMP_temperature;BMP_pressure;BME280_temperature;BME280_humidity;BME280_pressure;Samples;Min_cycle;Max_cycle;Signal;HPM_P1;HPM_P2
2021/11/24 01:25:03;;;;;;;35.20;21.80;;;;;;;5.94;68.46;99946.30;212289;1325;140900;-57
2021/11/24 01:30:08;;;;;;;34.20;21.00;;;;;;;5.85;68.08;99943.34;211969;1329;138845;-60
2021/11/24 01:35:12;;;;;;;36.70;20.30;;;;;;;5.78;68.17;99941.78;212633;1326;139723;-58
2021/11/24 01:40:15;;;;;;;28.50;18.10;;;;;;;5.77;68.84;99937.23;212922;1325;140038;-61
2021/11/24 01:45:21;;;;;;;29.10;17.60;;;;;;;5.76;68.50;99936.92;212409;1325;141004;-59
2021/11/24 01:50:25;;;;;;;29.60;19.10;;;;;;;5.69;68.67;99931.27;211931;1331;140429;-62
2021/11/24 01:55:28;;;;;;;31.60;19.70;;;;;;;5.66;68.73;99930.84;212455;1323;140458;-60
2021/11/24 02:00:34;;;;;;;29.40;17.80;;;;;;;5.63;68.81;99930.95;211965;1334;139018;-61
2021/11/24 02:05:37;;;;;;;32.50;18.90;;;;;;;5.60;68.79;99932.79;211976;1329;143802;-59
2021/11/24 02:10:40;;;;;;;26.30;17.00;;;;;;;5.59;68.82;99935.27;212229;1329;141745;-60
2021/11/24 02:15:43;;;;;;;28.90;18.80;;;;;;;5.59;68.83;99937.55;211989;1325;139925;-61
2021/11/24 02:20:47;;;;;;;27.50;18.20;;;;;;;5.62;69.02;99935.38;212837;1325;140957;-58
2021/11/24 02:25:51;;;;;;;24.70;16.20;;;;;;;5.61;68.95;99928.34;212264;1329;140057;-60
2021/11/24 02:30:54;;;;;;;26.60;15.80;;;;;;;5.57;69.29;99925.46;212198;1329;140070;-59
2021/11/24 02:35:57;;;;;;;23.70;15.40;;;;;;;5.54;69.27;99929.95;212052;1326;139950;-59
2021/11/24 02:41:00;;;;;;;22.60;14.50;;;;;;;5.51;69.13;99923.52;212320;1323;140325;-63
2021/11/24 02:46:03;;;;;;;24.00;13.50;;;;;;;5.55;69.41;99920.05;212135;1325;139686;-59
2021/11/24 02:51:07;;;;;;;20.60;13.00;;;;;;;5.56;69.04;99917.05;212325;1325;141084;-60
2021/11/24 02:56:10;;;;;;;21.90;14.80;;;;;;;5.52;69.29;99924.74;212110;1329;139793;-61
2021/11/24 03:01:13;;;;;;;20.30;13.40;;;;;;;5.50;69.26;99922.67;212481;1325;139986;-60
2021/11/24 03:06:17;;;;;;;23.80;14.70;;;;;;;5.48;69.27;99923.97;212521;1325;140300;-61
2021/11/24 03:11:20;;;;;;;22.00;13.70;;;;;;;5.48;69.38;99917.81;212207;1325;140081;-60
2021/11/24 03:16:24;;;;;;;24.70;13.60;;;;;;;5.51;69.51;99919.31;211976;1330;211499;-60
2021/11/24 03:21:27;;;;;;;21.40;13.70;;;;;;;5.53;69.18;99920.13;212487;1328;140822;-60
2021/11/24 03:26:30;;;;;;;22.10;13.50;;;;;;;5.51;69.28;99917.17;212036;1328;139915;-63
2021/11/24 03:31:34;;;;;;;19.90;12.20;;;;;;;5.50;69.41;99921.27;212142;1322;140437;-61
2021/11/24 03:36:38;;;;;;;24.10;13.80;;;;;;;5.52;69.27;99911.70;212268;1331;140416;-62
2021/11/24 03:41:41;;;;;;;21.20;13.00;;;;;;;5.55;69.20;99908.80;212184;1328;140725;-60
2021/11/24 03:46:44;;;;;;;22.40;12.50;;;;;;;5.57;69.16;99907.52;211733;1328;140667;-62
2021/11/24 03:51:48;;;;;;;19.60;13.20;;;;;;;5.59;69.22;99905.17;212258;1325;139268;-61
2021/11/24 03:56:51;;;;;;;18.20;12.80;;;;;;;5.59;69.28;99904.27;212884;1325;140144;-60
2021/11/24 04:01:54;;;;;;;19.80;12.70;;;;;;;5.56;69.30;99900.14;212002;1331;141277;-60
2021/11/24 04:06:58;;;;;;;21.50;14.30;;;;;;;5.53;69.40;99895.31;212066;1325;140038;-60
2021/11/24 04:12:02;;;;;;;22.40;13.60;;;;;;;5.49;69.50;99888.90;211929;1327;140132;-59
2021/11/24 04:17:05;;;;;;;20.40;13.10;;;;;;;5.47;69.48;99882.45;211999;1324;141390;-59
2021/11/24 04:22:08;;;;;;;19.20;12.90;;;;;;;5.51;69.68;99876.54;212431;1323;140052;-59
2021/11/24 04:27:13;;;;;;;21.50;13.70;;;;;;;5.51;69.46;99876.18;212037;1326;140246;-63
2021/11/24 04:32:17;;;;;;;19.30;13.00;;;;;;;5.52;69.64;99882.48;211928;1327;140570;-63
2021/11/24 04:37:20;;;;;;;18.10;12.10;;;;;;;5.52;69.47;99883.02;212156;1325;139469;-59
2021/11/24 04:42:23;;;;;;;21.50;12.90;;;;;;;5.47;69.54;99885.61;212091;1325;140139;-62
2021/11/24 04:47:26;;;;;;;18.10;12.20;;;;;;;5.46;69.63;99886.17;212462;1329;140830;-60
2021/11/24 04:52:29;;;;;;;17.50;11.20;;;;;;;5.49;69.43;99880.46;212263;1325;140226;-60
2021/11/24 04:57:32;;;;;;;18.60;11.30;;;;;;;5.51;69.53;99881.83;212899;1322;140920;-61
2021/11/24 05:02:35;;;;;;;15.60;10.70;;;;;;;5.49;69.48;99875.71;212050;1330;140474;-61
2021/11/24 05:07:39;;;;;;;15.90;9.90;;;;;;;5.48;69.79;99874.16;212329;1325;140682;-62
2021/11/24 05:12:42;;;;;;;14.30;9.60;;;;;;;5.51;69.52;99870.73;211870;1324;140372;-60
2021/11/24 05:17:48;;;;;;;13.10;8.80;;;;;;;5.57;69.61;99867.21;211787;1331;139431;-59
2021/11/24 05:22:53;;;;;;;15.50;9.70;;;;;;;5.60;69.91;99863.77;212194;1325;139889;-61
2021/11/24 05:27:56;;;;;;;14.90;10.20;;;;;;;5.62;69.57;99862.48;211513;1334;140083;-60
2021/11/24 05:33:00;;;;;;;15.20;8.90;;;;;;;5.61;69.78;99863.37;211579;1319;140582;-58
2021/11/24 05:38:03;;;;;;;15.10;9.10;;;;;;;5.59;69.20;99861.85;212707;1328;140089;-60
2021/11/24 05:43:07;;;;;;;14.80;9.40;;;;;;;5.57;69.43;99863.85;212384;1322;140248;-58
2021/11/24 05:48:13;;;;;;;14.10;8.60;;;;;;;5.58;69.31;99868.59;212047;1328;140471;-58
2021/11/24 05:53:18;;;;;;;11.40;8.80;;;;;;;5.60;69.36;99866.42;211941;1325;141133;-60
2021/11/24 05:58:23;;;;;;;130.60;104.10;;;;;;;5.62;69.31;99867.07;211906;1329;138865;-62
2021/11/24 06:03:26;;;;;;;14.90;10.70;;;;;;;5.73;69.72;99869.73;211887;1328;139560;-62
2021/11/24 06:08:29;;;;;;;12.50;9.00;;;;;;;5.86;69.69;99874.12;211617;1328;140540;-60
2021/11/24 06:13:34;;;;;;;14.90;9.10;;;;;;;5.87;69.25;99877.25;212453;1322;140261;-60
2021/11/24 06:18:37;;;;;;;16.30;9.70;;;;;;;5.83;69.21;99875.61;212744;1325;140739;-59
2021/11/24 06:23:41;;;;;;;14.90;10.20;;;;;;;5.78;68.96;99878.40;211731;1328;139900;-61
2021/11/24 06:28:44;;;;;;;17.70;10.70;;;;;;;5.83;69.58;99885.66;211761;1325;139784;-60
2021/11/24 06:33:48;;;;;;;19.40;10.90;;;;;;;5.94;69.45;99887.98;212123;1325;142778;-63
2021/11/24 06:38:52;;;;;;;15.40;9.40;;;;;;;5.96;69.14;99889.54;212016;1324;139528;-61
2021/11/24 06:43:56;;;;;;;67.00;43.00;;;;;;;5.91;69.14;99895.82;211722;1332;139688;-63
2021/11/24 06:48:59;;;;;;;20.20;11.70;;;;;;;5.95;69.26;99895.88;212320;1328;140501;-62
2021/11/24 06:54:02;;;;;;;15.00;9.90;;;;;;;5.91;68.96;99892.99;212860;1322;140484;-60
2021/11/24 06:59:05;;;;;;;15.30;9.60;;;;;;;5.87;69.08;99905.96;212147;1322;140348;-61
2021/11/24 07:04:09;;;;;;;157.10;91.80;;;;;;;5.83;69.03;99908.00;212155;1322;139920;-63
2021/11/24 07:09:14;;;;;;;18.90;11.30;;;;;;;5.91;69.32;99911.14;211978;1327;140939;-62
2021/11/24 07:14:17;;;;;;;21.00;10.90;;;;;;;5.94;69.05;99907.38;212029;1326;141073;-60
2021/11/24 07:19:23;;;;;;;15.80;10.20;;;;;;;5.93;69.10;99907.21;212132;1329;139346;-64
2021/11/24 07:24:33;;;;;;;17.40;10.10;;;;;;;5.95;68.90;99912.83;212696;1326;140540;-62
2021/11/24 07:29:36;;;;;;;16.50;10.80;;;;;;;5.95;68.96;99905.77;212705;1322;139897;-61
2021/11/24 07:34:39;;;;;;;12.50;9.10;;;;;;;5.96;69.02;99905.91;212251;1327;139862;-60
2021/11/24 07:39:42;;;;;;;14.30;9.30;;;;;;;5.96;68.65;99902.04;212623;1325;141546;-65
2021/11/24 07:44:46;;;;;;;13.20;9.50;;;;;;;5.99;68.70;99894.19;212234;1322;140852;-61
2021/11/24 07:49:49;;;;;;;13.60;8.80;;;;;;;6.05;68.88;99895.95;211786;1324;139859;-61
2021/11/24 07:54:52;;;;;;;15.70;9.00;;;;;;;6.08;68.76;99887.94;211950;1328;140093;-65
2021/11/24 07:59:56;;;;;;;13.20;9.00;;;;;;;6.13;68.81;99883.39;212078;1330;139816;-63
2021/11/24 08:04:59;;;;;;;13.00;9.20;;;;;;;6.14;68.82;99886.00;212066;1325;138934;-59
2021/11/24 08:10:23;;;;;;;13.30;9.20;;;;;;;6.11;68.78;99888.02;212614;1325;141333;-63
2021/11/24 08:15:26;;;;;;;13.80;8.80;;;;;;;6.14;68.76;99889.35;212016;1323;139862;-61
2021/11/24 08:20:29;;;;;;;130.20;87.50;;;;;;;6.14;68.38;99896.03;212313;1323;139726;-63
2021/11/24 08:25:33;;;;;;;14.80;9.60;;;;;;;6.28;68.75;99898.08;211896;1332;140372;-62
2021/11/24 08:30:36;;;;;;;13.60;9.70;;;;;;;6.35;68.61;99899.46;212242;1325;141160;-58
2021/11/24 08:35:39;;;;;;;18.40;10.70;;;;;;;6.36;68.12;99901.02;212261;1325;139578;-59
2021/11/24 08:40:43;;;;;;;14.70;9.50;;;;;;;6.37;68.24;99902.20;212193;1323;140189;-62
2021/11/24 08:45:46;;;;;;;15.70;9.70;;;;;;;6.38;67.98;99895.65;212000;1324;138998;-60
2021/11/24 08:50:50;;;;;;;15.00;10.10;;;;;;;6.41;68.28;99896.27;212013;1331;139807;-61
2021/11/24 08:55:54;;;;;;;18.60;10.40;;;;;;;6.46;68.09;99898.23;211789;1332;140151;-64
2021/11/24 09:01:02;;;;;;;16.80;9.60;;;;;;;6.48;67.90;99900.45;211914;1328;139760;-61
2021/11/24 09:06:06;;;;;;;20.40;10.80;;;;;;;6.50;67.43;99897.94;211731;1328;140381;-62
2021/11/24 09:11:09;;;;;;;16.60;9.20;;;;;;;6.54;67.54;99894.63;212581;1323;140165;-63
2021/11/24 09:16:13;;;;;;;17.60;10.20;;;;;;;6.53;67.23;99894.47;212656;1324;140181;-62
2021/11/24 09:21:19;;;;;;;17.60;9.60;;;;;;;6.53;67.26;99888.64;211964;1331;142390;-61
2021/11/24 09:31:56;;;;;;;18.90;12.10;;;;;;;7.05;68.14;99884.48;211834;1325;127471;-61
2021/11/24 09:36:59;;;;;;;22.70;10.80;;;;;;;7.10;67.29;99882.73;212220;1327;139893;-60
2021/11/24 09:42:04;;;;;;;16.70;9.80;;;;;;;6.99;66.83;99876.56;212014;1325;139980;-59
2021/11/24 09:47:08;;;;;;;16.50;9.70;;;;;;;7.00;66.76;99872.48;212477;1323;141762;-60
2021/11/24 09:52:12;;;;;;;17.20;10.60;;;;;;;7.06;66.76;99871.91;212525;1325;140629;-63
2021/11/24 09:57:18;;;;;;;17.50;9.80;;;;;;;7.10;66.56;99869.52;212255;1325;140802;-58
2021/11/24 10:02:22;;;;;;;15.70;8.90;;;;;;;7.08;66.12;99866.38;212317;1327;139944;-59
2021/11/24 10:07:25;;;;;;;17.70;10.20;;;;;;;7.06;66.04;99858.34;211782;1330;139767;-62
2021/11/24 10:12:28;;;;;;;21.70;11.50;;;;;;;7.10;66.35;99850.09;212112;1324;140490;-59
2021/11/24 10:17:31;;;;;;;20.10;9.70;;;;;;;7.23;66.14;99845.03;212691;1324;139134;-61
2021/11/24 10:22:41;;;;;;;17.40;10.80;;;;;;;7.16;65.66;99846.17;211868;1330;139919;-58
2021/11/24 10:27:47;;;;;;;16.60;10.30;;;;;;;7.13;65.60;99847.87;211893;1323;139400;-62
2021/11/24 10:32:52;;;;;;;16.50;9.50;;;;;;;7.11;65.44;99848.65;211674;1328;139449;-60
2021/11/24 10:38:14;;;;;;;12.20;8.00;;;;;;;7.11;65.33;99837.70;211978;1324;139578;-61
2021/11/24 10:43:17;;;;;;;15.30;7.70;;;;;;;7.14;65.15;99832.84;212020;1329;140436;-59
2021/11/24 10:48:28;;;;;;;11.70;6.90;;;;;;;7.16;64.84;99830.10;211594;1326;142605;-61
2021/11/24 10:53:31;;;;;;;10.10;6.90;;;;;;;7.20;64.56;99822.22;211790;1325;140280;-61
2021/11/24 10:58:39;;;;;;;11.90;7.20;;;;;;;7.19;64.32;99813.58;212055;1327;141209;-59
2021/11/24 11:03:43;;;;;;;11.10;7.40;;;;;;;7.18;64.50;99803.56;212105;1323;139689;-63
2021/11/24 11:08:57;;;;;;;15.50;10.30;;;;;;;7.26;64.76;99801.84;211877;1327;140927;-60
2021/11/24 11:14:25;;;;;;;12.00;7.30;;;;;;;7.36;64.37;99796.90;211960;1325;164120;-62
2021/11/24 11:19:48;;;;;;;10.60;6.80;;;;;;;7.34;64.00;99786.55;211802;1321;139770;-59
2021/11/24 11:24:51;;;;;;;12.70;7.80;;;;;;;7.32;63.63;99777.64;212186;1325;138883;-58
2021/11/24 11:29:59;;;;;;;12.60;7.20;;;;;;;7.31;63.91;99771.16;211544;1330;140038;-58
2021/11/24 11:35:04;;;;;;;12.50;6.00;;;;;;;7.35;63.68;99764.99;212573;1324;139446;-58
2021/11/24 11:40:09;;;;;;;12.20;5.90;;;;;;;7.34;63.34;99755.69;212899;1322;139278;-59
2021/11/24 11:45:19;;;;;;;10.40;5.60;;;;;;;7.30;63.09;99754.93;211853;1326;139860;-58
2021/11/24 11:50:37;;;;;;;8.40;5.60;;;;;;;7.28;63.18;99741.09;212135;1329;138725;-57
2021/11/24 11:55:41;;;;;;;6.10;3.70;;;;;;;7.30;62.90;99737.48;211829;1323;140176;-58
2021/11/24 12:01:11;;;;;;;5.90;3.40;;;;;;;7.30;62.58;99731.83;211439;1328;138842;-59
2021/11/24 12:06:26;;;;;;;9.00;3.80;;;;;;;7.35;62.50;99730.92;211917;1326;140045;-58
2021/11/24 12:11:58;;;;;;;8.00;3.10;;;;;;;7.44;62.15;99723.02;212253;1329;140036;-58
2021/11/24 12:17:34;;;;;;;7.60;3.60;;;;;;;7.48;62.28;99722.66;212201;1322;139590;-59
2021/11/24 12:27:58;;;;;;;5.40;2.80;;;;;;;7.44;61.33;99714.16;212377;1328;138584;-57
2021/11/24 12:33:20;;;;;;;5.50;2.60;;;;;;;7.38;61.09;99715.63;213074;1323;140031;-58
2021/11/24 12:38:28;;;;;;;110.10;59.30;;;;;;;7.34;61.16;99714.52;212416;1330;139303;-57
2021/11/24 12:43:34;;;;;;;8.40;3.90;;;;;;;7.41;61.33;99709.89;211894;1328;141312;-58
2021/11/24 12:48:46;;;;;;;;;;;;;;;7.38;60.93;99712.65;212057;1329;139246;-57
2021/11/24 12:54:04;;;;;;;4.10;2.40;;;;;;;7.31;60.64;99711.66;211877;1331;219520;-59
2021/11/24 12:59:13;;;;;;;4.30;2.60;;;;;;;7.27;60.65;99712.19;212525;1324;141083;-60
2021/11/24 13:04:20;;;;;;;4.30;2.50;;;;;;;7.25;60.20;99713.66;212154;1325;139708;-60
2021/11/24 13:09:30;;;;;;;4.20;2.20;;;;;;;7.17;60.00;99712.20;212051;1329;139754;-59
2021/11/24 13:14:36;;;;;;;3.40;2.50;;;;;;;7.15;60.00;99705.23;212218;1331;139036;-60
2021/11/24 13:19:57;;;;;;;3.10;2.20;;;;;;;7.14;60.10;99707.56;211571;1334;139674;-57
2021/11/24 13:25:05;;;;;;;;;;;;;;;7.13;60.00;99702.29;212024;1328;138921;-58
2021/11/24 13:30:12;;;;;;;4.40;2.80;;;;;;;7.12;60.02;99701.60;211908;1333;126666;-59
2021/11/24 13:35:15;;;;;;;77.10;48.70;;;;;;;7.15;60.15;99704.17;212325;1331;139149;-57
2021/11/24 13:40:44;;;;;;;6.30;3.80;;;;;;;7.30;60.30;99702.33;212209;1326;140352;-58
2021/11/24 13:45:47;;;;;;;5.30;3.10;;;;;;;7.27;59.72;99705.10;212329;1328;140106;-58
2021/11/24 13:50:59;;;;;;;8.30;2.70;;;;;;;7.20;59.45;99703.78;212384;1325;138804;-58
2021/11/24 13:56:18;;;;;;;4.90;2.60;;;;;;;7.13;59.36;99700.16;212369;1328;139590;-56
2021/11/24 14:01:35;;;;;;;4.20;2.80;;;;;;;7.08;59.42;99696.13;211935;1331;139684;-55
2021/11/24 14:07:12;;;;;;;4.40;3.00;;;;;;;7.09;59.42;99698.71;212265;1326;140290;-58
2021/11/24 14:12:16;;;;;;;7.90;2.80;;;;;;;7.07;59.21;99695.43;212516;1322;139779;-57
2021/11/24 14:17:24;;;;;;;5.00;3.30;;;;;;;7.07;59.14;99691.23;212764;1325;139877;-58
2021/11/24 14:22:45;;;;;;;7.70;4.70;;;;;;;7.07;59.32;99692.96;212188;1327;138831;-57
2021/11/24 14:27:49;;;;;;;5.20;3.30;;;;;;;7.17;59.26;99689.44;211849;1325;138546;-55
2021/11/24 14:32:53;;;;;;;7.60;3.30;;;;;;;7.11;59.02;99681.02;212110;1327;139329;-57
2021/11/24 14:37:56;;;;;;;7.10;3.40;;;;;;;7.03;58.96;99677.98;211811;1331;139556;-57
2021/11/24 14:43:01;;;;;;;6.20;3.30;;;;;;;6.97;58.83;99675.52;211791;1330;140035;-56
2021/11/24 14:48:06;;;;;;;4.90;3.50;;;;;;;6.96;58.97;99669.75;211916;1324;138829;-59
2021/11/24 14:53:09;;;;;;;5.50;3.90;;;;;;;6.95;58.97;99665.57;211904;1327;141175;-58
2021/11/24 14:58:30;;;;;;;6.60;3.90;;;;;;;6.96;59.12;99667.82;211868;1325;140947;-56
2021/11/24 15:03:33;;;;;;;6.30;3.90;;;;;;;6.95;58.80;99663.96;211468;1331;139446;-58
2021/11/24 15:08:37;;;;;;;12.20;4.70;;;;;;;6.92;58.89;99662.66;211889;1324;140566;-58
2021/11/24 15:13:41;;;;;;;14.10;8.40;;;;;;;6.92;58.98;99661.62;211771;1327;139715;-58
2021/11/24 15:18:44;;;;;;;9.40;4.90;;;;;;;6.99;59.10;99661.16;211773;1325;139429;-57
2021/11/24 15:23:49;;;;;;;10.60;4.80;;;;;;;6.98;58.79;99656.77;211890;1324;140183;-59
2021/11/24 15:28:52;;;;;;;7.60;4.50;;;;;;;6.93;58.49;99657.34;212742;1325;139501;-58
2021/11/24 15:33:55;;;;;;;20.90;11.00;;;;;;;6.90;58.72;99650.92;211693;1330;139213;-59
2021/11/24 15:38:59;;;;;;;9.30;5.00;;;;;;;6.93;58.84;99649.41;211676;1323;139782;-57
2021/11/24 15:44:02;;;;;;;10.30;5.00;;;;;;;6.88;58.68;99654.51;211785;1327;139295;-56
2021/11/24 15:49:06;;;;;;;15.20;9.00;;;;;;;6.86;58.59;99653.71;211920;1324;139888;-58
2021/11/24 15:54:09;;;;;;;7.90;4.80;;;;;;;6.93;58.87;99652.05;212408;1324;140651;-58
2021/11/24 15:59:13;;;;;;;11.10;5.20;;;;;;;6.92;58.60;99646.46;212115;1326;138332;-59
2021/11/24 16:04:16;;;;;;;7.10;4.60;;;;;;;6.86;58.48;99642.59;211897;1324;139846;-57
2021/11/24 16:09:20;;;;;;;10.00;5.00;;;;;;;6.85;58.41;99643.35;212406;1324;139556;-59
2021/11/24 16:14:32;;;;;;;14.20;5.40;;;;;;;6.83;58.48;99641.46;211868;1331;139903;-58
2021/11/24 16:19:35;;;;;;;10.80;5.00;;;;;;;6.81;58.56;99644.36;212010;1324;138992;-59
2021/11/24 16:24:39;;;;;;;11.00;5.00;;;;;;;6.76;58.31;99638.21;212324;1324;140338;-59
2021/11/24 16:29:43;;;;;;;15.50;5.30;;;;;;;6.67;58.25;99629.02;211539;1331;139688;-58
2021/11/24 16:34:48;;;;;;;222.00;135.50;;;;;;;6.56;58.17;99624.66;212199;1325;139363;-58
2021/11/24 16:39:52;;;;;;;15.10;9.20;;;;;;;6.67;59.08;99621.27;211919;1330;140118;-60
2021/11/24 16:44:58;;;;;;;8.40;5.70;;;;;;;6.70;58.60;99620.11;211467;1331;138880;-59
2021/11/24 16:50:03;;;;;;;10.50;5.60;;;;;;;6.65;58.41;99617.80;212459;1327;139203;-57
2021/11/24 16:55:09;;;;;;;10.50;5.60;;;;;;;6.62;58.57;99615.09;212006;1324;140130;-60
2021/11/24 17:00:16;;;;;;;9.40;5.30;;;;;;;6.57;58.57;99614.76;212385;1322;141214;-59
2021/11/24 17:05:20;;;;;;;8.30;4.90;;;;;;;6.51;58.08;99612.66;211706;1325;139169;-59
2021/11/24 17:10:23;;;;;;;89.40;63.30;;;;;;;6.47;58.61;99611.27;212325;1328;141435;-58
2021/11/24 17:15:28;;;;;;;16.50;7.50;;;;;;;6.54;59.03;99612.05;211962;1329;141344;-57
2021/11/24 17:20:32;;;;;;;10.90;6.60;;;;;;;6.53;59.02;99611.55;211743;1325;139599;-58
2021/11/24 17:25:42;;;;;;;12.70;5.90;;;;;;;6.47;59.07;99606.81;212259;1322;139659;-59
2021/11/24 17:30:46;;;;;;;15.10;6.80;;;;;;;6.47;59.12;99609.67;211530;1323;139764;-59
2021/11/24 17:35:58;;;;;;;12.90;6.20;;;;;;;6.44;59.24;99608.02;211799;1324;139639;-58
2021/11/24 17:41:02;;;;;;;16.50;6.60;;;;;;;6.38;59.56;99596.94;211957;1324;139282;-59
2021/11/24 17:46:06;;;;;;;16.20;6.70;;;;;;;6.34;59.34;99595.47;212641;1322;139445;-59
2021/11/24 17:51:10;;;;;;;19.10;7.30;;;;;;;6.34;60.14;99592.48;212900;1322;139361;-59
2021/11/24 17:56:13;;;;;;;29.50;8.00;;;;;;;6.33;59.89;99593.08;212060;1325;139588;-59
2021/11/24 18:01:17;;;;;;;16.30;6.60;;;;;;;6.29;59.90;99593.38;212192;1328;139716;-58
2021/11/24 18:06:25;;;;;;;16.20;7.40;;;;;;;6.30;60.42;99590.71;212507;1324;139486;-57
2021/11/24 18:11:28;;;;;;;20.30;7.30;;;;;;;6.29;60.52;99585.45;212043;1326;139242;-60
2021/11/24 18:16:31;;;;;;;17.00;7.80;;;;;;;6.31;60.76;99583.25;211809;1325;139784;-58
2021/11/24 18:21:36;;;;;;;12.60;6.40;;;;;;;6.33;60.65;99579.31;211651;1328;139089;-58
2021/11/24 18:26:43;;;;;;;35.10;19.70;;;;;;;6.35;60.65;99580.29;211929;1326;139566;-57
2021/11/24 18:31:48;;;;;;;24.60;11.40;;;;;;;6.38;60.64;99571.90;211903;1325;139523;-60
2021/11/24 18:36:51;;;;;;;19.90;6.80;;;;;;;6.38;60.31;99571.91;211927;1325;140341;-57
2021/11/24 18:41:54;;;;;;;16.90;7.50;;;;;;;6.33;60.68;99567.84;211614;1331;139129;-58
2021/11/24 18:46:58;;;;;;;27.00;7.50;;;;;;;6.28;60.60;99562.23;211987;1328;139771;-59
2021/11/24 18:52:01;;;;;;;23.50;8.00;;;;;;;6.30;61.17;99560.23;212333;1323;139088;-61
2021/11/24 18:57:05;;;;;;;17.00;7.10;;;;;;;6.58;61.70;99559.03;212450;1325;139706;-59
2021/11/24 19:02:09;;;;;;;23.70;6.70;;;;;;;6.63;60.42;99555.46;211771;1329;139661;-59
2021/11/24 19:07:13;;;;;;;23.60;8.60;;;;;;;6.46;60.15;99545.91;211786;1324;139400;-58
2021/11/24 19:12:17;;;;;;;20.00;7.40;;;;;;;6.26;60.22;99541.35;211537;1325;468616;-60
2021/11/24 19:17:20;;;;;;;21.20;7.70;;;;;;;6.09;60.50;99530.30;211984;1325;139214;-59
2021/11/24 19:22:25;;;;;;;16.40;8.10;;;;;;;5.95;60.45;99532.41;211885;1325;140382;-62
2021/11/24 19:27:28;;;;;;;20.50;8.10;;;;;;;5.82;60.41;99532.30;211623;1333;139898;-59
2021/11/24 19:32:31;;;;;;;19.80;8.80;;;;;;;5.72;60.58;99529.30;211782;1325;138983;-60
2021/11/24 19:37:35;;;;;;;20.20;8.20;;;;;;;5.64;60.39;99521.81;211735;1331;139122;-61
2021/11/24 19:42:39;;;;;;;24.60;8.50;;;;;;;5.54;60.46;99520.73;212381;1325;139232;-59
2021/11/24 19:47:42;;;;;;;25.60;8.80;;;;;;;5.45;60.72;99517.02;211555;1331;139826;-59
2021/11/24 19:52:46;;;;;;;22.80;8.90;;;;;;;5.36;60.58;99506.40;211496;1334;139008;-60
2021/11/24 19:57:50;;;;;;;19.10;8.50;;;;;;;5.25;60.77;99507.12;211590;1331;139600;-59
2021/11/24 20:02:54;;;;;;;60.30;35.80;;;;;;;5.12;60.99;99502.45;212115;1324;140128;-59
2021/11/24 20:07:59;;;;;;;39.90;18.70;;;;;;;5.14;61.77;99498.34;211665;1331;139257;-59
2021/11/24 20:13:03;;;;;;;33.20;9.00;;;;;;;5.25;61.72;99493.04;212008;1325;140051;-59
2021/11/24 20:18:07;;;;;;;102.70;53.40;;;;;;;5.22;61.76;99491.55;212064;1331;139991;-58
2021/11/24 20:23:10;;;;;;;23.80;10.20;;;;;;;5.25;61.43;99485.48;212386;1322;140416;-58
2021/11/24 20:28:20;;;;;;;21.50;9.10;;;;;;;5.20;61.32;99486.33;211837;1324;142000;-59
2021/11/24 20:33:23;;;;;;;19.00;9.10;;;;;;;5.08;61.36;99483.75;212025;1328;141066;-61
2021/11/24 20:38:26;;;;;;;28.10;10.30;;;;;;;4.94;61.58;99482.25;212576;1324;138896;-62
2021/11/24 20:43:30;;;;;;;27.60;11.30;;;;;;;4.87;61.75;99487.61;211979;1325;140141;-57
2021/11/24 20:48:33;;;;;;;22.80;10.30;;;;;;;4.83;61.49;99482.96;212039;1324;139761;-60
2021/11/24 20:53:36;;;;;;;27.20;11.00;;;;;;;4.65;61.43;99478.95;211966;1325;139144;-59
2021/11/24 20:58:39;;;;;;;32.00;11.70;;;;;;;4.52;61.67;99474.79;212443;1330;138812;-59
2021/11/24 21:03:43;;;;;;;29.10;12.50;;;;;;;4.44;61.79;99478.20;212276;1323;140582;-58
2021/11/24 21:08:47;;;;;;;37.20;15.10;;;;;;;4.30;61.95;99477.55;212032;1328;139279;-57
2021/11/24 21:13:55;;;;;;;30.50;15.20;;;;;;;4.19;62.01;99475.40;212258;1322;139445;-59
2021/11/24 21:19:01;;;;;;;38.40;16.10;;;;;;;4.06;62.11;99471.40;211654;1332;139169;-62
2021/11/24 21:24:04;;;;;;;36.70;17.00;;;;;;;3.98;62.39;99469.88;212369;1323;140176;-62
2021/11/24 21:29:08;;;;;;;33.50;15.50;;;;;;;3.91;62.74;99466.91;212370;1323;139372;-61
2021/11/24 21:34:11;;;;;;;36.60;17.50;;;;;;;3.86;62.85;99466.70;212342;1325;139419;-62
2021/11/24 21:39:14;;;;;;;38.60;16.50;;;;;;;3.80;62.63;99466.17;212451;1325;138754;-60
2021/11/24 21:44:17;;;;;;;39.00;18.20;;;;;;;3.77;62.91;99460.81;212658;1326;139944;-64
2021/11/24 21:49:20;;;;;;;40.50;17.70;;;;;;;3.79;62.91;99459.34;212434;1323;140020;-60
2021/11/24 21:54:23;;;;;;;38.50;17.50;;;;;;;3.77;62.83;99454.50;212240;1325;140025;-60
2021/11/24 21:59:31;;;;;;;41.40;18.10;;;;;;;3.70;62.74;99452.59;212701;1325;139262;-60
2021/11/24 22:04:35;;;;;;;41.60;19.10;;;;;;;3.64;62.97;99441.52;211988;1329;139290;-60
2021/11/24 22:14:59;;;;;;;44.60;21.20;;;;;;;3.46;63.07;99436.73;212408;1322;139332;-60
2021/11/24 22:20:04;;;;;;;39.60;20.90;;;;;;;3.37;63.05;99441.19;213071;1322;139568;-62
2021/11/24 22:25:07;;;;;;;49.80;23.90;;;;;;;3.27;63.19;99430.23;212888;1325;139889;-62
2021/11/24 22:30:11;;;;;;;61.10;31.30;;;;;;;3.24;63.51;99430.84;212409;1329;139105;-61
2021/11/24 22:35:14;;;;;;;62.80;32.70;;;;;;;3.25;63.70;99428.54;212586;1322;139807;-65
2021/11/24 22:40:17;;;;;;;67.80;34.00;;;;;;;3.27;63.62;99422.68;212394;1322;139126;-62
2021/11/24 22:45:20;;;;;;;68.70;32.80;;;;;;;3.20;63.66;99416.02;212537;1328;138823;-66
2021/11/24 22:50:24;;;;;;;53.70;30.50;;;;;;;3.13;63.58;99410.26;212486;1322;139847;-62
2021/11/24 22:55:27;;;;;;;69.30;35.50;;;;;;;3.05;63.62;99404.66;212525;1328;139655;-61
2021/11/24 23:00:35;;;;;;;67.30;34.60;;;;;;;3.03;63.71;99392.45;212507;1325;140513;-66
2021/11/24 23:05:39;;;;;;;70.90;35.30;;;;;;;3.07;63.92;99382.37;212126;1328;139901;-61
2021/11/24 23:10:46;;;;;;;71.20;36.70;;;;;;;3.08;63.81;99378.29;212513;1322;139053;-61
2021/11/24 23:15:49;;;;;;;68.80;35.00;;;;;;;3.05;63.91;99371.37;212313;1325;139327;-60
2021/11/24 23:20:52;;;;;;;63.10;33.00;;;;;;;3.00;63.89;99368.70;211551;1328;139854;-64
2021/11/24 23:25:55;;;;;;;61.00;33.30;;;;;;;2.94;63.94;99360.45;212456;1327;138988;-60
2021/11/24 23:30:58;;;;;;;67.60;35.00;;;;;;;2.87;63.80;99356.95;212270;1325;140728;-60
2021/11/24 23:36:03;;;;;;;59.90;33.20;;;;;;;2.79;63.96;99352.94;212950;1322;139418;-64
2021/11/24 23:41:07;;;;;;;60.00;33.00;;;;;;;2.74;63.99;99346.41;212598;1325;139010;-60
2021/11/24 23:46:10;;;;;;;62.10;31.90;;;;;;;2.68;64.15;99339.05;212764;1325;139205;-59
2021/11/24 23:51:14;;;;;;;57.60;32.70;;;;;;;2.61;64.23;99333.26;212873;1322;141283;-61
2021/11/24 23:56:18;;;;;;;63.20;34.00;;;;;;;2.55;64.25;99323.08;212087;1326;138974;-57
